Republican, Arkansas
Current Conditions -  °F | °C
As of 11:58 PM on Monday 20 Oct 2014 (Local Time) from KLRF Reporting Station
Clear Clear  
Wind Chill: 55°   Ceiling: Unl
Heat Index: 55°   Visibility: 7mi
Dew Point: 53°   Wind: 0mph
Humidity: 96%   Direction: NA
Pressure: 30.05"   Gusts: NA
Location:  35.2494°N, 92.313°W
Report Text: KLRF 210458Z AUTO 00000KT 7SM CLR 13/12 A3005 RMK AO2 SLP178 T01250119
Loading
Personal Weather Stations






























Interactive Weather Map
Tropical Storm Tracking
New forecast layout! Learn more

10-Day Weather Forecast

Advertisements
Track Severe Weather on mobile